createdAt,value
2018-07-17T00:00:19.353Z,7.75
2018-07-17T00:00:52.542Z,8.33
2018-07-17T00:01:25.653Z,7.70
2018-07-17T00:01:58.992Z,12.47
2018-07-17T00:02:32.047Z,6.85
2018-07-17T00:03:05.297Z,7.95
2018-07-17T00:03:38.404Z,10.00
2018-07-17T00:04:11.473Z,8.30
2018-07-17T00:04:44.530Z,7.05
2018-07-17T00:05:19.649Z,7.53
2018-07-17T00:05:54.574Z,7.75
2018-07-17T00:06:27.630Z,9.65
2018-07-17T00:07:01.006Z,7.42
2018-07-17T00:07:34.081Z,11.15
2018-07-17T00:08:07.223Z,9.83
2018-07-17T00:08:40.276Z,8.58
2018-07-17T00:09:13.329Z,7.12
2018-07-17T00:09:46.513Z,8.23
2018-07-17T00:10:19.765Z,7.97
2018-07-17T00:10:52.835Z,8.50
2018-07-17T00:11:25.879Z,8.30
2018-07-17T00:11:58.965Z,8.98
2018-07-17T00:12:32.169Z,10.98
2018-07-17T00:13:05.275Z,8.83
2018-07-17T00:13:38.408Z,14.05
2018-07-17T00:14:11.532Z,11.45
2018-07-17T00:14:44.787Z,7.83
2018-07-17T00:15:17.923Z,7.72
2018-07-17T00:15:51.121Z,7.40
2018-07-17T00:16:24.284Z,8.55
2018-07-17T00:16:57.463Z,7.35
2018-07-17T00:17:30.886Z,7.70
2018-07-17T00:18:04.119Z,8.63
2018-07-17T00:18:37.304Z,8.73
2018-07-17T00:19:10.371Z,8.65
2018-07-17T00:19:43.971Z,8.18
2018-07-17T00:20:17.150Z,7.83
2018-07-17T00:20:50.323Z,7.25
2018-07-17T00:21:23.497Z,7.15
2018-07-17T00:21:56.568Z,8.05
2018-07-17T00:22:29.655Z,13.48
2018-07-17T00:23:02.754Z,8.23
2018-07-17T00:23:35.919Z,8.00
2018-07-17T00:24:08.984Z,7.80
2018-07-17T00:24:42.335Z,7.65
2018-07-17T00:25:15.580Z,8.03
2018-07-17T00:25:48.631Z,7.55
2018-07-17T00:26:21.743Z,7.47
2018-07-17T00:26:54.974Z,7.55
2018-07-17T00:27:28.159Z,7.75
2018-07-17T00:28:01.216Z,9.18
2018-07-17T00:28:36.277Z,8.95
2018-07-17T00:29:12.452Z,8.13
2018-07-17T00:29:46.989Z,7.75
2018-07-17T00:30:21.248Z,7.60
2018-07-17T00:30:56.304Z,7.75
2018-07-17T00:31:30.553Z,8.50
2018-07-17T00:32:03.618Z,7.60
2018-07-17T00:32:36.706Z,7.50
2018-07-17T00:33:09.749Z,7.40
2018-07-17T00:33:42.958Z,7.58
2018-07-17T00:34:16.143Z,7.45
2018-07-17T00:34:49.324Z,8.05
2018-07-17T00:35:22.791Z,9.05
2018-07-17T00:35:55.982Z,9.15
2018-07-17T00:36:29.072Z,8.35
2018-07-17T00:37:02.160Z,7.58
2018-07-17T00:37:35.289Z,7.60
2018-07-17T00:38:08.380Z,7.15
2018-07-17T00:38:41.564Z,18.15
2018-07-17T00:39:14.783Z,7.83
2018-07-17T00:39:47.884Z,9.13
2018-07-17T00:40:21.334Z,7.90
2018-07-17T00:40:54.412Z,7.72
2018-07-17T00:41:27.468Z,8.95
2018-07-17T00:42:00.551Z,7.25
2018-07-17T00:42:33.582Z,7.78
2018-07-17T00:43:06.639Z,7.80
2018-07-17T00:43:39.867Z,7.60
2018-07-17T00:44:13.027Z,7.95
2018-07-17T00:44:46.113Z,7.92
2018-07-17T00:45:19.162Z,8.23
2018-07-17T00:45:52.257Z,7.70
2018-07-17T00:46:25.452Z,9.75
2018-07-17T00:46:58.627Z,8.13
2018-07-17T00:47:31.733Z,7.33
2018-07-17T00:48:04.963Z,7.12
2018-07-17T00:48:38.005Z,7.80
2018-07-17T00:49:11.470Z,7.87
2018-07-17T00:49:44.528Z,7.92
2018-07-17T00:50:17.624Z,10.15
2018-07-17T00:50:50.876Z,6.87
2018-07-17T00:51:24.044Z,8.55
2018-07-17T00:51:57.229Z,8.90
2018-07-17T00:52:30.409Z,7.20
2018-07-17T00:53:03.490Z,10.98
2018-07-17T00:53:36.565Z,7.50
2018-07-17T00:54:09.942Z,8.93
2018-07-17T00:54:43.002Z,7.10
2018-07-17T00:55:16.303Z,7.67
2018-07-17T00:55:49.371Z,9.40
2018-07-17T00:56:22.419Z,8.55
2018-07-17T00:56:55.528Z,8.18
2018-07-17T00:57:28.841Z,8.75
2018-07-17T00:58:01.923Z,7.85
2018-07-17T00:58:35.068Z,7.72
2018-07-17T00:59:08.236Z,8.33
2018-07-17T00:59:41.422Z,9.93
2018-07-17T01:00:14.552Z,7.83
2018-07-17T01:00:46.902Z,8.23
2018-07-17T01:01:25.280Z,10.28
2018-07-17T01:02:03.827Z,8.28
2018-07-17T01:02:42.257Z,7.95
2018-07-17T01:03:20.699Z,7.97
2018-07-17T01:03:59.157Z,10.60
2018-07-17T01:04:37.627Z,9.20
2018-07-17T01:05:16.099Z,7.80
2018-07-17T01:05:54.576Z,10.03
2018-07-17T01:06:33.079Z,8.10
2018-07-17T01:07:11.614Z,7.78
2018-07-17T01:07:49.976Z,8.55
2018-07-17T01:08:28.738Z,9.03
2018-07-17T01:09:07.319Z,8.05
2018-07-17T01:09:45.811Z,7.90
2018-07-17T01:10:24.289Z,8.50
2018-07-17T01:11:02.793Z,8.38
2018-07-17T01:11:41.372Z,12.98
2018-07-17T01:12:13.751Z,8.53
2018-07-17T01:12:46.135Z,8.18
2018-07-17T01:13:42.509Z,8.30
2018-07-17T01:14:20.969Z,7.35
2018-07-17T01:15:00.732Z,12.58
2018-07-17T01:15:37.187Z,7.58
2018-07-17T01:16:10.246Z,9.93
2018-07-17T01:16:43.344Z,9.13
2018-07-17T01:17:17.738Z,7.70
2018-07-17T01:17:50.806Z,8.30
2018-07-17T01:18:23.911Z,8.18
2018-07-17T01:18:56.968Z,8.65
2018-07-17T01:19:30.035Z,8.63
2018-07-17T01:20:03.194Z,8.93
2018-07-17T01:20:36.259Z,8.40
2018-07-17T01:21:09.350Z,11.85
2018-07-17T01:21:42.428Z,8.70
2018-07-17T01:22:15.517Z,8.70
2018-07-17T01:22:48.577Z,8.90
2018-07-17T01:23:21.695Z,9.15
2018-07-17T01:23:54.792Z,8.10
2018-07-17T01:24:27.872Z,9.23
2018-07-17T01:25:00.943Z,9.00
2018-07-17T01:25:34.046Z,9.78
2018-07-17T01:26:07.364Z,12.13
2018-07-17T01:26:40.430Z,9.30
2018-07-17T01:27:13.587Z,9.30
2018-07-17T01:27:46.693Z,10.48
2018-07-17T01:28:19.726Z,9.63
2018-07-17T01:28:52.805Z,10.40
2018-07-17T01:29:25.872Z,8.85
2018-07-17T01:29:59.183Z,10.70
2018-07-17T01:30:32.242Z,10.48
2018-07-17T01:31:05.321Z,10.50
2018-07-17T01:31:38.400Z,10.00
2018-07-17T01:32:11.629Z,9.03
2018-07-17T01:32:44.695Z,10.15
2018-07-17T01:33:17.798Z,9.75
2018-07-17T01:33:50.859Z,10.85
2018-07-17T01:34:23.979Z,11.10
2018-07-17T01:34:57.051Z,13.60
2018-07-17T01:35:30.118Z,9.90
2018-07-17T01:36:03.199Z,8.83
2018-07-17T01:36:36.267Z,9.33
2018-07-17T01:37:09.568Z,8.70
2018-07-17T01:37:42.751Z,8.65
2018-07-17T01:38:16.136Z,9.18
2018-07-17T01:38:49.159Z,8.60
2018-07-17T01:39:22.288Z,10.23
2018-07-17T01:39:55.379Z,8.75
2018-07-17T01:40:28.645Z,8.48
2018-07-17T01:41:01.717Z,9.50
2018-07-17T01:41:35.029Z,9.65
2018-07-17T01:42:08.082Z,10.13
2018-07-17T01:42:41.373Z,10.38
2018-07-17T01:43:14.667Z,10.70
2018-07-17T01:43:47.920Z,9.00
2018-07-17T01:44:21.483Z,9.60
2018-07-17T01:44:54.548Z,9.75
2018-07-17T01:45:27.621Z,8.48
2018-07-17T01:46:00.866Z,9.55
2018-07-17T01:46:33.915Z,9.78
2018-07-17T01:47:06.967Z,9.73
2018-07-17T01:47:40.269Z,9.30
2018-07-17T01:48:13.343Z,8.70
2018-07-17T01:48:46.433Z,9.60
2018-07-17T01:49:19.489Z,11.25
2018-07-17T01:49:52.689Z,8.98
2018-07-17T01:50:25.750Z,9.43
2018-07-17T01:50:58.806Z,8.90
2018-07-17T01:51:31.857Z,9.40
2018-07-17T01:52:05.082Z,9.15
2018-07-17T01:52:38.254Z,9.83
2018-07-17T01:53:11.322Z,10.38
2018-07-17T01:53:44.368Z,9.98
2018-07-17T01:54:17.453Z,9.85
2018-07-17T01:54:50.804Z,10.40
2018-07-17T01:55:23.880Z,10.60
2018-07-17T01:55:56.927Z,9.30
2018-07-17T01:56:30.416Z,9.23
2018-07-17T01:57:03.691Z,9.15
2018-07-17T01:57:36.751Z,9.68
2018-07-17T01:58:10.035Z,11.20
2018-07-17T01:58:43.103Z,8.58
2018-07-17T01:59:16.156Z,9.80
2018-07-17T01:59:49.241Z,9.43
2018-07-17T02:00:22.443Z,9.23
2018-07-17T02:00:55.643Z,9.05
2018-07-17T02:01:28.724Z,10.63
2018-07-17T02:02:01.795Z,11.00
2018-07-17T02:02:34.866Z,12.90
2018-07-17T02:03:08.170Z,8.90
2018-07-17T02:03:41.255Z,8.65
2018-07-17T02:04:14.390Z,9.98
2018-07-17T02:04:47.707Z,10.68
2018-07-17T02:05:20.782Z,8.60
2018-07-17T02:05:53.918Z,9.93
2018-07-17T02:06:27.023Z,11.95
2018-07-17T02:07:00.278Z,12.93
2018-07-17T02:07:33.355Z,9.28
2018-07-17T02:08:06.406Z,10.05
2018-07-17T02:08:39.466Z,9.58
2018-07-17T02:09:12.531Z,10.43
2018-07-17T02:09:45.582Z,9.20
2018-07-17T02:10:18.655Z,9.28
2018-07-17T02:10:51.914Z,9.10
2018-07-17T02:11:25.237Z,9.88
2018-07-17T02:11:58.393Z,9.88
2018-07-17T02:12:31.447Z,9.55
2018-07-17T02:13:04.544Z,9.75
2018-07-17T02:13:37.674Z,9.68
2018-07-17T02:14:10.737Z,9.48
2018-07-17T02:14:43.856Z,9.63
2018-07-17T02:15:17.050Z,10.28
2018-07-17T02:15:50.210Z,9.40
2018-07-17T02:16:23.317Z,9.70
2018-07-17T02:16:56.571Z,12.25
2018-07-17T02:17:29.666Z,9.03
2018-07-17T02:18:02.735Z,11.10
2018-07-17T02:18:36.013Z,9.53
2018-07-17T02:19:09.012Z,9.95
2018-07-17T02:19:42.091Z,11.12
2018-07-17T02:20:15.473Z,10.03
2018-07-17T02:20:48.580Z,9.20
2018-07-17T02:21:21.740Z,9.93
2018-07-17T02:21:54.887Z,9.28
2018-07-17T02:22:28.064Z,9.20
2018-07-17T02:23:01.195Z,10.10
2018-07-17T02:23:34.419Z,9.60
2018-07-17T02:24:07.587Z,9.43
2018-07-17T02:24:40.648Z,8.63
2018-07-17T02:25:13.772Z,9.25
2018-07-17T02:25:46.842Z,10.08
2018-07-17T02:26:19.994Z,9.38
2018-07-17T02:26:53.411Z,9.48
2018-07-17T02:27:26.663Z,9.43
2018-07-17T02:27:59.730Z,10.23
2018-07-17T02:28:33.158Z,10.13
2018-07-17T02:29:06.239Z,11.03
2018-07-17T02:29:39.376Z,8.73
2018-07-17T02:30:12.546Z,9.98
2018-07-17T02:30:45.733Z,9.50
2018-07-17T02:31:18.912Z,9.48
2018-07-17T02:31:52.225Z,9.10
2018-07-17T02:32:25.306Z,9.23
2018-07-17T02:32:58.448Z,10.82
2018-07-17T02:33:31.555Z,10.38
2018-07-17T02:34:04.704Z,10.88
2018-07-17T02:34:37.979Z,10.65
2018-07-17T02:35:11.048Z,9.65
2018-07-17T02:35:44.353Z,9.55
2018-07-17T02:36:17.419Z,9.35
2018-07-17T02:36:50.829Z,9.55
2018-07-17T02:37:23.883Z,10.32
2018-07-17T02:37:57.052Z,10.68
2018-07-17T02:38:30.339Z,9.28
2018-07-17T02:39:03.644Z,8.93
2018-07-17T02:39:36.728Z,10.75
2018-07-17T02:40:09.899Z,9.28
2018-07-17T02:40:42.966Z,10.28
2018-07-17T02:41:16.127Z,9.43
2018-07-17T02:41:49.312Z,12.65
2018-07-17T02:42:22.407Z,10.95
2018-07-17T02:42:55.667Z,11.65
2018-07-17T02:43:28.751Z,9.40
2018-07-17T02:44:01.820Z,9.85
2018-07-17T02:44:34.883Z,9.45
2018-07-17T02:45:07.969Z,9.30
2018-07-17T02:45:41.246Z,8.93
2018-07-17T02:46:14.427Z,9.55
2018-07-17T02:46:47.596Z,12.70
2018-07-17T02:47:20.793Z,10.48
2018-07-17T02:47:53.863Z,10.08
2018-07-17T02:48:27.270Z,9.75
2018-07-17T02:49:00.341Z,11.03
2018-07-17T02:49:33.585Z,10.55
2018-07-17T02:50:06.683Z,15.20
2018-07-17T02:50:39.976Z,10.30
2018-07-17T02:51:13.078Z,9.73
2018-07-17T02:51:46.149Z,9.13
2018-07-17T02:52:19.217Z,9.50
2018-07-17T02:52:52.291Z,9.45
2018-07-17T02:53:25.440Z,14.38
2018-07-17T02:53:58.616Z,9.45
2018-07-17T02:54:31.784Z,8.88
2018-07-17T02:55:04.856Z,10.05
2018-07-17T02:55:37.912Z,11.03
2018-07-17T02:56:11.009Z,11.38
2018-07-17T02:56:44.219Z,10.30
2018-07-17T02:57:17.510Z,10.20
2018-07-17T02:57:50.581Z,9.60
2018-07-17T02:58:23.740Z,14.10
2018-07-17T02:58:57.045Z,9.68
2018-07-17T02:59:30.112Z,12.80
2018-07-17T03:00:03.200Z,10.75
2018-07-17T03:00:36.787Z,9.40
2018-07-17T03:01:09.928Z,9.95
2018-07-17T03:01:43.015Z,9.78
2018-07-17T03:02:16.297Z,9.63
2018-07-17T03:02:49.461Z,9.15
2018-07-17T03:03:22.559Z,10.78
2018-07-17T03:03:55.622Z,9.70
2018-07-17T03:04:28.699Z,15.88
2018-07-17T03:05:01.756Z,11.40
2018-07-17T03:05:34.816Z,9.65
2018-07-17T03:06:07.921Z,8.98
2018-07-17T03:06:41.103Z,9.83
2018-07-17T03:07:14.415Z,9.68
2018-07-17T03:07:47.469Z,12.47
2018-07-17T03:08:20.633Z,10.85
2018-07-17T03:08:53.817Z,9.53
2018-07-17T03:09:26.883Z,9.63
2018-07-17T03:09:59.928Z,15.10
2018-07-17T03:10:33.185Z,10.63
2018-07-17T03:11:06.531Z,9.83
2018-07-17T03:11:39.704Z,13.75
2018-07-17T03:12:12.921Z,12.50
2018-07-17T03:12:46.095Z,10.55
2018-07-17T03:13:19.227Z,9.58
2018-07-17T03:13:52.454Z,10.18
2018-07-17T03:14:25.605Z,10.03
2018-07-17T03:14:58.795Z,9.95
2018-07-17T03:15:31.968Z,10.43
2018-07-17T03:16:05.139Z,10.88
2018-07-17T03:16:38.312Z,9.85
2018-07-17T03:17:11.513Z,9.15
2018-07-17T03:17:44.708Z,9.43
2018-07-17T03:18:17.770Z,8.65
2018-07-17T03:18:51.061Z,11.80
2018-07-17T03:19:24.113Z,11.00
2018-07-17T03:19:57.191Z,10.70
2018-07-17T03:20:30.576Z,10.50
2018-07-17T03:21:03.752Z,10.95
2018-07-17T03:21:36.805Z,9.83
2018-07-17T03:22:10.098Z,10.40
2018-07-17T03:22:43.164Z,10.32
2018-07-17T03:23:16.464Z,10.78
2018-07-17T03:23:49.666Z,10.80
2018-07-17T03:24:22.834Z,9.60
2018-07-17T03:24:55.911Z,8.70
2018-07-17T03:25:29.172Z,9.93
2018-07-17T03:26:02.403Z,10.40
2018-07-17T03:26:35.532Z,10.58
2018-07-17T03:27:08.641Z,9.88
2018-07-17T03:27:41.808Z,10.05
2018-07-17T03:28:15.282Z,10.32
2018-07-17T03:28:48.376Z,9.75
2018-07-17T03:29:21.712Z,10.20
2018-07-17T03:29:54.903Z,12.03
2018-07-17T03:30:27.972Z,10.60
2018-07-17T03:31:01.020Z,9.13
2018-07-17T03:31:34.140Z,10.10
2018-07-17T03:32:07.347Z,10.43
2018-07-17T03:32:40.438Z,10.20
2018-07-17T03:33:13.530Z,9.25
2018-07-17T03:33:46.601Z,11.05
2018-07-17T03:34:19.679Z,10.23
2018-07-17T03:34:52.904Z,9.73
2018-07-17T03:35:26.214Z,11.60
2018-07-17T03:35:59.272Z,9.75
2018-07-17T03:36:32.487Z,9.80
2018-07-17T03:37:05.612Z,10.35
2018-07-17T03:37:38.793Z,11.00
2018-07-17T03:38:11.861Z,9.60
2018-07-17T03:38:45.288Z,10.25
2018-07-17T03:39:18.469Z,9.78
2018-07-17T03:39:51.563Z,9.83
2018-07-17T03:40:24.695Z,10.80
2018-07-17T03:40:57.994Z,10.20
2018-07-17T03:41:31.063Z,13.50
2018-07-17T03:42:04.124Z,10.38
2018-07-17T03:42:37.404Z,12.33
2018-07-17T03:43:10.571Z,10.78
2018-07-17T03:43:43.717Z,9.80
2018-07-17T03:44:16.963Z,10.93
2018-07-17T03:44:50.113Z,13.50
2018-07-17T03:45:23.448Z,10.20
2018-07-17T03:45:56.601Z,10.85
2018-07-17T03:46:29.657Z,10.23
2018-07-17T03:47:02.791Z,10.00
2018-07-17T03:47:36.033Z,10.40
2018-07-17T03:48:09.220Z,15.18
2018-07-17T03:48:42.393Z,10.15
2018-07-17T03:49:15.447Z,10.45
2018-07-17T03:49:48.497Z,11.15
2018-07-17T03:50:21.548Z,10.75
2018-07-17T03:50:54.619Z,12.98
2018-07-17T03:51:27.962Z,11.68
2018-07-17T03:52:01.150Z,11.03
2018-07-17T03:52:34.306Z,15.58
2018-07-17T03:53:07.483Z,9.80
2018-07-17T03:53:40.589Z,18.87
2018-07-17T03:54:13.827Z,10.23
2018-07-17T03:54:46.910Z,11.43
2018-07-17T03:55:19.994Z,13.50
2018-07-17T03:55:53.243Z,11.25
2018-07-17T03:56:26.321Z,10.65
2018-07-17T03:56:59.422Z,10.90
2018-07-17T03:57:32.658Z,11.03
2018-07-17T03:58:05.807Z,10.58
2018-07-17T03:58:38.963Z,9.93
2018-07-17T03:59:12.106Z,11.28
2018-07-17T03:59:45.175Z,9.80
2018-07-17T04:00:18.234Z,10.88
2018-07-17T04:00:51.387Z,10.88
2018-07-17T04:01:24.484Z,10.28
2018-07-17T04:01:57.716Z,9.90
2018-07-17T04:02:30.966Z,9.53
2018-07-17T04:03:04.081Z,9.83
2018-07-17T04:03:37.143Z,11.30
2018-07-17T04:04:10.282Z,11.40
2018-07-17T04:04:43.355Z,10.85
2018-07-17T04:05:16.928Z,12.73
2018-07-17T04:05:50.017Z,10.10
2018-07-17T04:06:23.152Z,11.22
2018-07-17T04:06:56.463Z,9.80
2018-07-17T04:07:29.816Z,10.93
2018-07-17T04:08:03.126Z,11.12
2018-07-17T04:08:36.219Z,10.70
2018-07-17T04:09:09.464Z,12.28
2018-07-17T04:09:42.538Z,11.48
2018-07-17T04:10:15.719Z,9.45
2018-07-17T04:10:48.891Z,10.70
2018-07-17T04:11:21.979Z,10.45
2018-07-17T04:11:55.076Z,11.83
2018-07-17T04:12:28.109Z,10.53
2018-07-17T04:13:01.278Z,11.35
2018-07-17T04:13:34.605Z,11.05
2018-07-17T04:14:07.720Z,11.83
2018-07-17T04:14:40.789Z,11.20
2018-07-17T04:15:14.008Z,11.33
2018-07-17T04:15:47.218Z,13.30
2018-07-17T04:16:20.287Z,12.18
2018-07-17T04:16:54.768Z,11.18
2018-07-17T04:17:27.962Z,10.70
2018-07-17T04:18:01.160Z,11.38
2018-07-17T04:18:34.252Z,10.90
2018-07-17T04:19:07.651Z,14.95
2018-07-17T04:19:40.974Z,11.22
2018-07-17T04:20:14.035Z,12.60
2018-07-17T04:20:47.461Z,11.12
2018-07-17T04:21:20.559Z,16.57
2018-07-17T04:21:53.637Z,11.40
2018-07-17T04:22:26.697Z,13.90
2018-07-17T04:22:59.744Z,12.70
2018-07-17T04:23:32.906Z,11.20
2018-07-17T04:24:06.193Z,11.05
2018-07-17T04:24:39.275Z,15.90
2018-07-17T04:25:12.443Z,12.33
2018-07-17T04:25:45.562Z,13.05
2018-07-17T04:26:18.666Z,12.55
2018-07-17T04:26:52.301Z,13.05
2018-07-17T04:27:25.374Z,12.53
2018-07-17T04:27:58.683Z,20.45
2018-07-17T04:28:31.821Z,16.30
2018-07-17T04:29:04.887Z,13.20
2018-07-17T04:29:38.217Z,12.03
2018-07-17T04:30:11.368Z,12.00
2018-07-17T04:30:44.610Z,11.85
2018-07-17T04:31:17.762Z,12.45
2018-07-17T04:31:50.878Z,14.60
2018-07-17T04:32:24.072Z,12.37
2018-07-17T04:32:57.154Z,14.70
2018-07-17T04:33:30.480Z,16.10
2018-07-17T04:34:03.591Z,12.13
2018-07-17T04:34:36.883Z,11.40
2018-07-17T04:35:10.031Z,12.35
2018-07-17T04:35:43.179Z,19.65
2018-07-17T04:36:16.319Z,17.62
2018-07-17T04:36:49.497Z,14.03
2018-07-17T04:37:22.564Z,17.40
2018-07-17T04:37:55.854Z,13.50
2018-07-17T04:38:29.019Z,12.63
2018-07-17T04:39:02.251Z,13.30
2018-07-17T04:39:35.307Z,13.08
2018-07-17T04:40:08.572Z,11.63
2018-07-17T04:40:41.763Z,11.68
2018-07-17T04:41:14.924Z,12.40
2018-07-17T04:41:48.031Z,13.10
2018-07-17T04:42:21.126Z,12.33
2018-07-17T04:42:54.185Z,12.18
2018-07-17T04:43:27.488Z,12.53
2018-07-17T04:44:00.580Z,12.60
2018-07-17T04:44:33.752Z,13.28
2018-07-17T04:45:06.888Z,13.75
2018-07-17T04:45:39.979Z,12.58
2018-07-17T04:46:13.362Z,11.75
2018-07-17T04:46:46.544Z,20.40
2018-07-17T04:47:19.612Z,12.80
2018-07-17T04:47:52.727Z,16.48
2018-07-17T04:48:25.939Z,14.23
2018-07-17T04:48:59.256Z,12.40
2018-07-17T04:49:32.334Z,14.10
2018-07-17T04:50:05.458Z,14.00
2018-07-17T04:50:38.673Z,16.02
2018-07-17T04:51:11.815Z,14.10
2018-07-17T04:51:44.957Z,15.40
2018-07-17T04:52:18.197Z,12.43
2018-07-17T04:52:51.272Z,14.33
2018-07-17T04:53:24.426Z,13.93
2018-07-17T04:53:57.792Z,13.95
2018-07-17T04:54:30.915Z,13.83
2018-07-17T04:55:03.984Z,13.43
2018-07-17T04:55:37.152Z,12.05
2018-07-17T04:56:10.444Z,10.90
2018-07-17T04:56:43.538Z,11.83
2018-07-17T04:57:16.674Z,12.03
2018-07-17T04:57:49.804Z,12.13
2018-07-17T04:58:22.883Z,12.68
2018-07-17T04:58:56.255Z,11.20
2018-07-17T04:59:29.514Z,17.25
2018-07-17T05:00:02.620Z,13.30
2018-07-17T05:00:35.692Z,12.90
2018-07-17T05:01:08.785Z,11.90
2018-07-17T05:01:42.156Z,12.20
2018-07-17T05:02:15.207Z,11.63
2018-07-17T05:02:48.412Z,13.58
2018-07-17T05:03:21.507Z,12.50
2018-07-17T05:03:54.595Z,11.70
2018-07-17T05:04:27.730Z,13.00
2018-07-17T05:05:00.917Z,12.35
2018-07-17T05:05:34.168Z,13.15
2018-07-17T05:06:07.353Z,18.73
2018-07-17T05:06:40.461Z,12.20
2018-07-17T05:07:13.540Z,12.55
2018-07-17T05:07:46.614Z,14.13
2018-07-17T05:08:19.824Z,11.80
2018-07-17T05:08:52.930Z,12.60
2018-07-17T05:09:26.127Z,12.37
2018-07-17T05:09:59.190Z,15.30
2018-07-17T05:10:32.497Z,14.18
2018-07-17T05:11:05.736Z,11.93
2018-07-17T05:11:38.859Z,14.78
2018-07-17T05:12:12.040Z,13.20
2018-07-17T05:12:45.407Z,11.93
2018-07-17T05:13:19.536Z,11.43
2018-07-17T05:13:52.648Z,13.13
2018-07-17T05:14:25.743Z,20.65
2018-07-17T05:14:58.831Z,18.40
2018-07-17T05:15:31.949Z,16.02
2018-07-17T05:16:05.178Z,11.60
2018-07-17T05:16:38.550Z,13.80
2018-07-17T05:17:12.176Z,12.78
2018-07-17T05:17:45.350Z,13.75
2018-07-17T05:18:18.462Z,12.93
2018-07-17T05:18:51.531Z,13.35
2018-07-17T05:19:24.894Z,11.05
2018-07-17T05:19:58.040Z,13.58
2018-07-17T05:20:31.316Z,16.85
2018-07-17T05:21:04.403Z,13.90
2018-07-17T05:21:37.582Z,12.43
2018-07-17T05:22:12.078Z,12.18
2018-07-17T05:22:45.149Z,12.15
2018-07-17T05:23:18.468Z,12.30
2018-07-17T05:23:51.578Z,12.10
2018-07-17T05:24:24.717Z,11.35
2018-07-17T05:24:57.886Z,11.40
2018-07-17T05:25:31.058Z,13.80
2018-07-17T05:26:04.545Z,13.72
2018-07-17T05:26:37.744Z,11.53
2018-07-17T05:27:11.016Z,12.80
2018-07-17T05:27:44.091Z,11.88
2018-07-17T05:28:17.234Z,11.08
2018-07-17T05:28:50.473Z,11.38
2018-07-17T05:29:23.603Z,15.48
2018-07-17T05:29:57.118Z,12.73
2018-07-17T05:30:30.259Z,12.88
2018-07-17T05:31:03.438Z,13.60
2018-07-17T05:31:36.633Z,11.70
2018-07-17T05:32:09.906Z,13.72
2018-07-17T05:32:43.023Z,12.88
2018-07-17T05:33:16.251Z,13.83
2018-07-17T05:33:49.352Z,12.78
2018-07-17T05:34:22.628Z,12.23
2018-07-17T05:34:56.016Z,12.60
2018-07-17T05:35:29.148Z,12.82
2018-07-17T05:36:02.388Z,12.60
2018-07-17T05:36:35.511Z,12.33
2018-07-17T05:37:08.853Z,12.23
2018-07-17T05:37:41.963Z,12.05
2018-07-17T05:38:15.143Z,13.13
2018-07-17T05:38:48.308Z,12.10
2018-07-17T05:39:21.439Z,12.88
2018-07-17T05:39:54.544Z,14.40
2018-07-17T05:40:27.635Z,12.13
2018-07-17T05:41:00.971Z,14.60
2018-07-17T05:41:34.200Z,12.98
2018-07-17T05:42:07.635Z,12.43
2018-07-17T05:42:40.934Z,12.10
2018-07-17T05:43:13.995Z,15.60
2018-07-17T05:43:47.151Z,14.47
2018-07-17T05:44:20.293Z,14.03
2018-07-17T05:44:53.431Z,14.33
2018-07-17T05:45:26.836Z,13.38
2018-07-17T05:45:59.951Z,14.15
2018-07-17T05:46:33.154Z,13.00
2018-07-17T05:47:06.719Z,14.60
2018-07-17T05:47:41.326Z,13.98
2018-07-17T05:48:14.487Z,12.60
2018-07-17T05:48:47.658Z,12.03
2018-07-17T05:49:20.854Z,12.65
2018-07-17T05:49:54.038Z,17.27
2018-07-17T05:50:27.120Z,11.80
2018-07-17T05:51:00.412Z,11.80
2018-07-17T05:51:33.564Z,12.20
2018-07-17T05:52:06.783Z,11.95
2018-07-17T05:52:40.032Z,12.50
2018-07-17T05:53:13.245Z,15.40
2018-07-17T05:53:46.647Z,14.70
2018-07-17T05:54:19.764Z,12.95
2018-07-17T05:54:52.993Z,13.68
2018-07-17T05:55:28.896Z,14.55
2018-07-17T05:56:04.309Z,15.58
2018-07-17T05:56:37.882Z,14.05
2018-07-17T05:57:11.001Z,17.90
2018-07-17T05:57:44.588Z,12.98
2018-07-17T05:58:17.671Z,12.25
2018-07-17T05:58:51.063Z,13.93
2018-07-17T05:59:24.280Z,15.10
2018-07-17T05:59:57.425Z,12.93
2018-07-17T06:00:30.487Z,12.55
2018-07-17T06:01:03.709Z,13.48
2018-07-17T06:01:37.084Z,13.95
2018-07-17T06:02:10.891Z,14.47
2018-07-17T06:02:44.572Z,21.93
2018-07-17T06:03:17.769Z,17.87
2018-07-17T06:03:50.803Z,14.50
2018-07-17T06:04:24.007Z,12.30
2018-07-17T06:04:57.173Z,13.08
2018-07-17T06:05:30.240Z,12.18
2018-07-17T06:06:03.333Z,16.85
2018-07-17T06:06:36.854Z,14.63
2018-07-17T06:07:09.903Z,11.48
2018-07-17T06:07:43.108Z,11.75
2018-07-17T06:08:16.250Z,12.43
2018-07-17T06:08:49.340Z,11.90
2018-07-17T06:09:22.726Z,17.25
2018-07-17T06:09:55.905Z,12.30
2018-07-17T06:10:28.973Z,13.83
2018-07-17T06:11:02.200Z,11.33
2018-07-17T06:11:35.476Z,14.58
2018-07-17T06:12:08.615Z,13.75
2018-07-17T06:12:42.016Z,11.43
2018-07-17T06:13:15.287Z,12.75
2018-07-17T06:13:48.454Z,16.07
2018-07-17T06:14:22.257Z,13.40
2018-07-17T06:14:55.375Z,14.53
2018-07-17T06:15:28.471Z,16.60
2018-07-17T06:16:01.584Z,16.12
2018-07-17T06:16:34.662Z,13.98
2018-07-17T06:17:07.871Z,14.55
2018-07-17T06:17:40.946Z,13.65
2018-07-17T06:18:14.178Z,13.18
2018-07-17T06:18:47.594Z,12.70
2018-07-17T06:19:20.731Z,12.35
2018-07-17T06:19:54.019Z,13.08
2018-07-17T06:20:27.091Z,13.10
2018-07-17T06:21:00.277Z,12.05
2018-07-17T06:21:33.377Z,11.40
2018-07-17T06:22:07.037Z,12.70
2018-07-17T06:22:40.463Z,12.68
2018-07-17T06:23:13.616Z,13.05
2018-07-17T06:23:46.808Z,12.60
2018-07-17T06:24:19.953Z,12.58
2018-07-17T06:24:53.040Z,13.88
2018-07-17T06:25:26.328Z,12.82
2018-07-17T06:25:59.440Z,12.45
2018-07-17T06:26:33.036Z,14.60
2018-07-17T06:27:06.732Z,11.95
2018-07-17T06:27:39.954Z,11.88
2018-07-17T06:28:13.155Z,12.10
2018-07-17T06:28:46.416Z,12.73
2018-07-17T06:29:19.498Z,11.35
2018-07-17T06:29:52.664Z,18.42
2018-07-17T06:30:25.764Z,11.70
2018-07-17T06:30:58.851Z,13.60
2018-07-17T06:31:31.929Z,13.65
2018-07-17T06:32:05.106Z,11.65
2018-07-17T06:32:39.178Z,11.12
2018-07-17T06:33:12.349Z,11.50
2018-07-17T06:33:45.448Z,12.98
2018-07-17T06:34:18.594Z,11.53
2018-07-17T06:34:51.779Z,13.48
2018-07-17T06:35:24.844Z,12.73
2018-07-17T06:35:57.957Z,18.45
2018-07-17T06:36:31.019Z,18.50
2018-07-17T06:37:04.119Z,14.87
2018-07-17T06:37:37.460Z,15.85
2018-07-17T06:38:10.783Z,13.80
2018-07-17T06:38:44.180Z,23.57
2018-07-17T06:39:17.762Z,15.78
2018-07-17T06:39:50.959Z,13.03
2018-07-17T06:40:24.056Z,12.30
2018-07-17T06:40:57.351Z,13.45
2018-07-17T06:41:30.463Z,11.75
2018-07-17T06:42:03.582Z,12.35
2018-07-17T06:42:36.693Z,11.60
2018-07-17T06:43:10.302Z,13.00
2018-07-17T06:43:43.404Z,14.20
2018-07-17T06:44:16.536Z,14.23
2018-07-17T06:44:49.615Z,13.30
2018-07-17T06:45:22.903Z,11.40
2018-07-17T06:45:56.017Z,16.40
2018-07-17T06:46:29.119Z,12.93
2018-07-17T06:47:02.197Z,13.40
2018-07-17T06:47:35.421Z,13.55
2018-07-17T06:48:08.548Z,24.63
2018-07-17T06:48:41.707Z,15.85
2018-07-17T06:49:14.844Z,11.78
2018-07-17T06:49:48.343Z,11.95
2018-07-17T06:50:21.512Z,14.10
2018-07-17T06:50:54.736Z,15.32
2018-07-17T06:51:28.198Z,11.60
2018-07-17T06:52:01.424Z,14.30
2018-07-17T06:52:34.559Z,12.35
2018-07-17T06:53:08.242Z,18.48
2018-07-17T06:53:41.471Z,17.80
2018-07-17T06:54:14.672Z,17.67
2018-07-17T06:54:47.767Z,11.30
2018-07-17T06:55:21.012Z,12.45
2018-07-17T06:55:54.239Z,15.78
2018-07-17T06:56:27.424Z,16.15
2018-07-17T06:57:00.614Z,23.27
2018-07-17T06:57:33.732Z,19.67
2018-07-17T06:58:06.893Z,14.07
2018-07-17T06:58:40.060Z,15.05
2018-07-17T06:59:13.126Z,13.72
2018-07-17T06:59:46.449Z,13.05
2018-07-17T07:00:19.620Z,11.95
2018-07-17T07:00:52.823Z,12.78
2018-07-17T07:01:25.936Z,15.72
2018-07-17T07:01:59.163Z,14.95
2018-07-17T07:02:32.283Z,14.53
2018-07-17T07:03:05.519Z,12.18
2018-07-17T07:03:38.611Z,12.43
2018-07-17T07:04:11.858Z,19.35
2018-07-17T07:04:45.188Z,11.90
2018-07-17T07:05:19.948Z,11.60
2018-07-17T07:05:54.293Z,11.55
2018-07-17T07:06:28.750Z,13.80
2018-07-17T07:07:04.227Z,11.70
2018-07-17T07:07:37.624Z,13.65
2018-07-17T07:08:10.775Z,11.88
2018-07-17T07:08:43.971Z,11.12
2018-07-17T07:09:17.269Z,11.68
2018-07-17T07:09:50.446Z,12.55
2018-07-17T07:10:23.526Z,11.00
2018-07-17T07:10:56.984Z,11.43
2018-07-17T07:11:30.082Z,10.82
2018-07-17T07:12:03.195Z,13.75
2018-07-17T07:12:36.425Z,13.15
2018-07-17T07:13:09.840Z,10.32
2018-07-17T07:13:42.956Z,12.30
2018-07-17T07:14:16.048Z,12.37
2018-07-17T07:14:49.218Z,13.03